Time;durP1;ratioP1;P1;durP2;ratioP2;P2;SDS_P1;SDS_P2;PMS_P1;PMS_P2;Temp;Humidity;BMP_temperature;BMP_pressure;BME280_temperature;BME280_humidity;BME280_pressure;Samples;Min_cycle;Max_cycle;Signal;HPM_P1;HPM_P2
2023/03/30 00:00:27;;;;;;;;;;;17.60;51.00;;;;;;5098486;28;20386;-73
2023/03/30 00:02:53;;;;;;;;;;;17.50;50.90;;;;;;5116523;28;19973;-73
2023/03/30 00:05:19;;;;;;;;;;;17.50;51.00;;;;;;5098525;28;19981;-74
2023/03/30 00:07:45;;;;;;;;;;;17.50;51.00;;;;;;5116315;28;19945;-73
2023/03/30 00:10:11;;;;;;;;;;;17.50;51.10;;;;;;5098310;28;19919;-72
2023/03/30 00:12:37;;;;;;;;;;;17.50;51.10;;;;;;5098346;28;20010;-73
2023/03/30 00:15:05;;;;;;;;;;;17.50;51.20;;;;;;5116307;28;19981;-73
2023/03/30 00:17:32;;;;;;;;;;;17.50;51.20;;;;;;5116630;28;19924;-73
2023/03/30 00:20:00;;;;;;;;;;;17.40;51.20;;;;;;5098187;28;19920;-73
2023/03/30 00:22:26;;;;;;;;;;;17.40;51.20;;;;;;5097907;28;19958;-73
2023/03/30 00:24:52;;;;;;;;;;;17.40;51.20;;;;;;5098024;28;20004;-73
2023/03/30 00:27:17;;;;;;;;;;;17.40;51.30;;;;;;5097655;28;19969;-73
2023/03/30 00:29:43;;;;;;;;;;;17.40;51.30;;;;;;5097636;28;20011;-73
2023/03/30 00:32:08;;;;;;;;;;;17.40;51.30;;;;;;5115961;28;19919;-73
2023/03/30 00:34:34;;;;;;;;;;;17.40;51.30;;;;;;5116235;28;19924;-73
2023/03/30 00:37:00;;;;;;;;;;;17.40;51.30;;;;;;5115970;28;19930;-73
2023/03/30 00:39:25;;;;;;;;;;;17.40;51.40;;;;;;5115806;28;19919;-73
2023/03/30 00:41:51;;;;;;;;;;;17.40;51.40;;;;;;5097794;28;19926;-73
2023/03/30 00:44:36;;;;;;;;;;;17.40;51.40;;;;;;5097688;28;19927;-73
2023/03/30 00:47:02;;;;;;;;;;;17.40;51.40;;;;;;5097611;28;20332;-73
2023/03/30 00:49:28;;;;;;;;;;;17.40;51.40;;;;;;5115641;28;19923;-73
2023/03/30 00:51:54;;;;;;;;;;;17.30;51.40;;;;;;5097300;28;19927;-72
2023/03/30 00:54:20;;;;;;;;;;;17.30;51.40;;;;;;5097514;28;20418;-73
2023/03/30 00:56:45;;;;;;;;;;;17.30;51.40;;;;;;5097235;28;19919;-73
2023/03/30 00:59:12;;;;;;;;;;;17.30;51.50;;;;;;5097167;28;19920;-73
2023/03/30 01:01:39;;;;;;;;;;;17.30;51.50;;;;;;5115264;28;19920;-73
2023/03/30 01:04:05;;;;;;;;;;;17.30;51.50;;;;;;5097097;28;19920;-73
2023/03/30 01:06:32;;;;;;;;;;;17.30;51.50;;;;;;5097052;28;19920;-73
2023/03/30 01:08:58;;;;;;;;;;;17.30;51.50;;;;;;5115158;28;19924;-73
2023/03/30 01:11:25;;;;;;;;;;;17.30;51.50;;;;;;5115383;28;19920;-74
2023/03/30 01:13:55;;;;;;;;;;;17.30;51.50;;;;;;5097252;28;20293;-73
2023/03/30 01:19:23;;;;;;;;;;;17.30;51.60;;;;;;5172379;27;19915;-73
2023/03/30 01:21:57;;;;;;;;;;;17.30;51.60;;;;;;5153742;27;20383;-73
2023/03/30 01:24:33;;;;;;;;;;;17.30;51.60;;;;;;5153871;27;19945;-72
2023/03/30 01:27:07;;;;;;;;;;;17.30;51.60;;;;;;5172102;27;19919;-72
2023/03/30 01:29:52;;;;;;;;;;;17.30;51.70;;;;;;5153427;27;19931;-72
2023/03/30 01:38:00;;;;;;;;;;;17.30;51.60;;;;;;5089999;28;19941;-73
2023/03/30 01:40:46;;;;;;;;;;;17.30;51.60;;;;;;5105655;28;19971;-72
2023/03/30 01:46:06;;;;;;;;;;;17.30;51.70;;;;;;5090000;28;19945;-72
2023/03/30 01:48:43;;;;;;;;;;;17.40;51.60;;;;;;5088895;28;20029;-73
2023/03/30 01:51:10;;;;;;;;;;;17.70;51.40;;;;;;5088883;28;20363;-72
2023/03/30 01:53:46;;;;;;;;;;;18.10;50.70;;;;;;5088520;28;20413;-72
2023/03/30 01:56:14;;;;;;;;;;;18.50;50.00;;;;;;5089912;28;20269;-72
2023/03/30 01:58:43;;;;;;;;;;;19.00;49.10;;;;;;5088669;28;19956;-72
2023/03/30 02:01:10;;;;;;;;;;;19.60;48.10;;;;;;5088283;28;19969;-73
2023/03/30 02:03:37;;;;;;;;;;;20.30;47.10;;;;;;5088493;28;19927;-72
2023/03/30 02:06:08;;;;;;;;;;;20.80;45.90;;;;;;5088332;28;19928;-73
2023/03/30 02:08:35;;;;;;;;;;;21.50;44.90;;;;;;5088483;28;19946;-73
2023/03/30 02:11:01;;;;;;;;;;;22.00;44.70;;;;;;5088207;28;20376;-73
2023/03/30 02:13:27;;;;;;;;;;;22.50;43.10;;;;;;5088121;28;19927;-73
2023/03/30 02:15:57;;;;;;;;;;;22.90;42.30;;;;;;5088117;28;19927;-73
2023/03/30 02:18:22;;;;;;;;;;;23.20;41.40;;;;;;5088003;28;20066;-73
2023/03/30 02:20:48;;;;;;;;;;;23.50;40.70;;;;;;5088283;28;20011;-73
2023/03/30 02:23:16;;;;;;;;;;;23.70;40.20;;;;;;5087938;28;20029;-73
2023/03/30 02:25:42;;;;;;;;;;;23.90;40.00;;;;;;5087944;28;19967;-72
2023/03/30 02:28:08;;;;;;;;;;;24.10;39.70;;;;;;5088137;28;20380;-72
2023/03/30 02:30:34;;;;;;;;;;;24.10;39.50;;;;;;5089167;28;19931;-73
2023/03/30 02:33:00;;;;;;;;;;;24.20;39.30;;;;;;5087782;28;20030;-73
2023/03/30 02:35:41;;;;;;;;;;;24.30;39.00;;;;;;5087722;28;20002;-73
2023/03/30 02:41:08;;;;;;;;;;;24.10;39.00;;;;;;5110363;27;19912;-73
2023/03/30 02:43:53;;;;;;;;;;;24.00;39.20;;;;;;5109084;28;20291;-73
2023/03/30 02:46:39;;;;;;;;;;;23.80;39.30;;;;;;5109066;28;19920;-73
2023/03/30 02:49:11;;;;;;;;;;;23.70;39.60;;;;;;5108610;28;20013;-73
2023/03/30 02:51:44;;;;;;;;;;;23.50;40.40;;;;;;5110120;28;20337;-73
2023/03/30 02:59:38;;;;;;;;;;;23.00;40.50;;;;;;5110226;27;19912;-73
2023/03/30 03:02:06;;;;;;;;;;;22.80;40.60;;;;;;5108887;28;19920;-73
2023/03/30 03:04:33;;;;;;;;;;;22.70;40.80;;;;;;5108857;28;19977;-73
2023/03/30 03:07:01;;;;;;;;;;;22.60;41.80;;;;;;5108872;28;19935;-73
2023/03/30 03:09:27;;;;;;;;;;;22.50;41.20;;;;;;5108788;28;19970;-73
2023/03/30 03:11:53;;;;;;;;;;;22.40;41.30;;;;;;5109170;28;19926;-73
2023/03/30 03:14:19;;;;;;;;;;;22.30;41.60;;;;;;5109106;28;20380;-73
2023/03/30 03:16:45;;;;;;;;;;;22.10;41.60;;;;;;5109045;28;20012;-73
2023/03/30 03:19:10;;;;;;;;;;;22.00;41.90;;;;;;5108466;28;19950;-73
2023/03/30 03:21:36;;;;;;;;;;;22.00;42.00;;;;;;5108694;28;19964;-73
2023/03/30 03:24:02;;;;;;;;;;;22.00;42.10;;;;;;5109869;28;19974;-73
2023/03/30 03:26:28;;;;;;;;;;;22.00;42.20;;;;;;5108470;28;19942;-73
2023/03/30 03:28:53;;;;;;;;;;;22.00;42.10;;;;;;5108806;28;19920;-73
2023/03/30 03:31:19;;;;;;;;;;;22.10;42.00;;;;;;5108630;28;19931;-73
2023/03/30 03:33:44;;;;;;;;;;;22.20;41.80;;;;;;5108318;28;19974;-73
2023/03/30 03:36:10;;;;;;;;;;;22.40;41.70;;;;;;5109577;28;19946;-74
2023/03/30 03:38:36;;;;;;;;;;;22.50;41.50;;;;;;5109552;28;19971;-73
2023/03/30 03:41:02;;;;;;;;;;;22.60;41.30;;;;;;5109654;28;19963;-73
2023/03/30 03:43:28;;;;;;;;;;;22.70;41.00;;;;;;5108374;28;19920;-73
2023/03/30 03:45:53;;;;;;;;;;;22.80;40.90;;;;;;5108409;28;19920;-73
2023/03/30 03:48:21;;;;;;;;;;;22.90;40.70;;;;;;5109318;28;19985;-73
2023/03/30 03:50:54;;;;;;;;;;;23.00;40.50;;;;;;5108000;28;20022;-73
2023/03/30 03:53:21;;;;;;;;;;;23.00;40.40;;;;;;5109364;28;20376;-73
2023/03/30 03:55:46;;;;;;;;;;;23.00;40.50;;;;;;5108172;28;19927;-72
2023/03/30 03:58:12;;;;;;;;;;;23.00;40.40;;;;;;5107740;28;19924;-73
2023/03/30 04:00:38;;;;;;;;;;;22.90;40.40;;;;;;5107804;28;19920;-73
2023/03/30 04:03:04;;;;;;;;;;;22.90;40.50;;;;;;5108058;28;19969;-73
2023/03/30 04:05:29;;;;;;;;;;;22.80;40.60;;;;;;5107784;28;20375;-73
2023/03/30 04:07:55;;;;;;;;;;;22.80;40.60;;;;;;5107616;28;19920;-73
2023/03/30 04:10:21;;;;;;;;;;;22.60;40.70;;;;;;5097336;28;19920;-73
2023/03/30 04:12:47;;;;;;;;;;;22.50;40.90;;;;;;5095357;28;20022;-73
2023/03/30 04:15:12;;;;;;;;;;;22.40;41.00;;;;;;5094083;28;20373;-73
2023/03/30 04:17:38;;;;;;;;;;;22.30;41.20;;;;;;5093815;28;19963;-73
2023/03/30 04:20:04;;;;;;;;;;;22.20;41.30;;;;;;5093918;28;19924;-74
2023/03/30 04:22:32;;;;;;;;;;;22.10;41.60;;;;;;5094164;28;20014;-73
2023/03/30 04:24:58;;;;;;;;;;;22.00;41.70;;;;;;5093906;28;19965;-73
2023/03/30 04:27:24;;;;;;;;;;;21.90;41.90;;;;;;5094087;28;19920;-73
2023/03/30 04:29:50;;;;;;;;;;;21.80;42.00;;;;;;5094074;28;19920;-72
2023/03/30 04:32:19;;;;;;;;;;;21.80;42.10;;;;;;5093722;28;19973;-73
2023/03/30 04:34:45;;;;;;;;;;;21.70;42.20;;;;;;5094897;28;19931;-72
2023/03/30 04:37:17;;;;;;;;;;;21.70;42.30;;;;;;5093459;28;19920;-73
2023/03/30 04:39:43;;;;;;;;;;;21.80;42.30;;;;;;5093927;28;19919;-72
2023/03/30 04:42:12;;;;;;;;;;;21.70;42.30;;;;;;5094748;28;20421;-72
2023/03/30 04:44:38;;;;;;;;;;;21.80;42.40;;;;;;5093798;28;19920;-72
2023/03/30 04:47:05;;;;;;;;;;;21.80;42.30;;;;;;5093318;28;20355;-72
2023/03/30 04:49:30;;;;;;;;;;;21.80;42.20;;;;;;5093397;28;19928;-72
2023/03/30 04:51:56;;;;;;;;;;;21.90;42.20;;;;;;5094804;28;19927;-72
2023/03/30 04:54:21;;;;;;;;;;;21.90;42.10;;;;;;5093248;28;19943;-72
2023/03/30 04:56:47;;;;;;;;;;;22.00;42.10;;;;;;5127684;27;20025;-72
2023/03/30 04:59:12;;;;;;;;;;;22.00;42.70;;;;;;5090576;28;20363;-73
2023/03/30 05:01:38;;;;;;;;;;;22.10;41.90;;;;;;5093088;28;19919;-73
2023/03/30 05:04:03;;;;;;;;;;;22.20;41.90;;;;;;5094208;28;19920;-73
2023/03/30 05:06:29;;;;;;;;;;;22.20;41.70;;;;;;5093013;28;19920;-73
2023/03/30 05:08:55;;;;;;;;;;;22.20;41.60;;;;;;5093191;28;20290;-73
2023/03/30 05:11:20;;;;;;;;;;;22.20;41.60;;;;;;5092927;28;19920;-73
2023/03/30 05:13:46;;;;;;;;;;;22.20;41.50;;;;;;5093191;28;19924;-73
2023/03/30 05:16:11;;;;;;;;;;;22.30;41.60;;;;;;5092817;28;20279;-73
2023/03/30 05:18:38;;;;;;;;;;;22.20;41.50;;;;;;5093865;28;20018;-73
2023/03/30 05:21:03;;;;;;;;;;;22.20;41.60;;;;;;5092978;28;19934;-73
2023/03/30 05:23:29;;;;;;;;;;;22.20;41.60;;;;;;5092570;28;19924;-73
2023/03/30 05:25:54;;;;;;;;;;;22.10;41.60;;;;;;5092574;28;19931;-73
2023/03/30 05:28:20;;;;;;;;;;;22.10;41.60;;;;;;5092832;28;19920;-73
2023/03/30 05:30:51;;;;;;;;;;;22.10;41.70;;;;;;5093117;28;20509;-73
2023/03/30 05:33:17;;;;;;;;;;;22.00;41.70;;;;;;5093671;28;19920;-73
2023/03/30 05:35:42;;;;;;;;;;;22.00;41.80;;;;;;5092886;28;19972;-73
2023/03/30 05:38:08;;;;;;;;;;;22.00;41.90;;;;;;5092365;28;20528;-73
2023/03/30 05:40:33;;;;;;;;;;;22.00;41.90;;;;;;5093729;28;19920;-73
2023/03/30 05:42:59;;;;;;;;;;;21.90;42.70;;;;;;5093591;28;20379;-73
2023/03/30 05:45:24;;;;;;;;;;;21.90;42.00;;;;;;5092446;28;19992;-73
2023/03/30 05:47:51;;;;;;;;;;;21.90;41.90;;;;;;5093459;28;19942;-73
2023/03/30 05:50:17;;;;;;;;;;;21.90;42.00;;;;;;5088117;28;20390;-73
2023/03/30 05:52:42;;;;;;;;;;;21.90;42.10;;;;;;5086716;28;19920;-72
2023/03/30 05:55:08;;;;;;;;;;;21.90;42.60;;;;;;5090506;28;20014;-69
2023/03/30 05:57:33;;;;;;;;;;;21.80;42.90;;;;;;5090739;28;19928;-70
2023/03/30 05:59:59;;;;;;;;;;;21.60;43.20;;;;;;5107986;28;20011;-71
2023/03/30 06:02:24;;;;;;;;;;;21.40;43.80;;;;;;5089947;28;20389;-71
2023/03/30 06:04:50;;;;;;;;;;;21.30;44.60;;;;;;5086458;28;19955;-71
2023/03/30 06:07:16;;;;;;;;;;;21.20;45.10;;;;;;5084248;28;19920;-70
2023/03/30 06:09:42;;;;;;;;;;;21.10;45.10;;;;;;5088349;27;19969;-70
2023/03/30 06:12:08;;;;;;;;;;;21.10;46.00;;;;;;5088167;28;20336;-70
2023/03/30 06:14:33;;;;;;;;;;;21.20;45.40;;;;;;5087773;28;19958;-70
2023/03/30 06:16:59;;;;;;;;;;;21.20;45.40;;;;;;5105348;28;19923;-71
2023/03/30 06:19:25;;;;;;;;;;;21.30;46.00;;;;;;5101978;28;20184;-70
2023/03/30 06:21:50;;;;;;;;;;;21.40;45.50;;;;;;5087217;28;19923;-70
2023/03/30 06:24:18;;;;;;;;;;;21.60;45.30;;;;;;5086493;28;20338;-70
2023/03/30 06:26:43;;;;;;;;;;;21.70;45.20;;;;;;5084624;28;20086;-71
2023/03/30 06:29:09;;;;;;;;;;;21.80;45.80;;;;;;5088921;28;19927;-70
2023/03/30 06:31:34;;;;;;;;;;;21.90;45.00;;;;;;5079926;28;19927;-70
2023/03/30 06:34:00;;;;;;;;;;;21.90;44.90;;;;;;5091620;28;19926;-70
2023/03/30 06:36:26;;;;;;;;;;;22.00;44.70;;;;;;5073739;28;19923;-72
2023/03/30 06:38:51;;;;;;;;;;;22.00;44.70;;;;;;5077055;28;19932;-71
2023/03/30 06:41:17;;;;;;;;;;;22.10;44.70;;;;;;5107429;27;19928;-68
2023/03/30 06:43:42;;;;;;;;;;;22.10;44.60;;;;;;5073431;28;20004;-72
2023/03/30 06:46:08;;;;;;;;;;;22.10;44.90;;;;;;5092643;28;19924;-79
2023/03/30 06:48:33;;;;;;;;;;;22.10;45.40;;;;;;5077062;28;20013;-78
2023/03/30 06:50:59;;;;;;;;;;;22.10;45.40;;;;;;5079527;28;20369;-78
2023/03/30 06:53:25;;;;;;;;;;;22.30;45.30;;;;;;5102534;27;19934;-73
2023/03/30 06:55:51;;;;;;;;;;;22.50;45.00;;;;;;5071791;28;19977;-81
2023/03/30 06:58:16;;;;;;;;;;;22.60;44.80;;;;;;5075119;28;20030;-77
2023/03/30 07:00:42;;;;;;;;;;;22.60;44.70;;;;;;5076163;28;20014;-74
2023/03/30 07:03:11;;;;;;;;;;;22.70;44.70;;;;;;5076813;28;19923;-75
2023/03/30 07:05:36;;;;;;;;;;;22.80;44.70;;;;;;5076285;28;19924;-74
2023/03/30 07:08:04;;;;;;;;;;;22.80;44.70;;;;;;5075975;28;19924;-73
2023/03/30 07:10:30;;;;;;;;;;;22.70;44.70;;;;;;5098476;28;20291;-74
2023/03/30 07:12:56;;;;;;;;;;;22.60;44.80;;;;;;5106462;28;20449;-73
2023/03/30 07:15:22;;;;;;;;;;;22.60;44.90;;;;;;5079996;28;19920;-73
2023/03/30 07:17:47;;;;;;;;;;;22.50;45.00;;;;;;5089623;28;20359;-76
2023/03/30 07:20:14;;;;;;;;;;;22.50;45.20;;;;;;5075220;28;20138;-75
2023/03/30 07:22:40;;;;;;;;;;;22.40;45.40;;;;;;5072732;28;19959;-73
2023/03/30 07:25:07;;;;;;;;;;;22.30;45.30;;;;;;5072193;28;19924;-75
2023/03/30 07:27:34;;;;;;;;;;;22.30;45.50;;;;;;5106852;28;19920;-74
2023/03/30 07:30:00;;;;;;;;;;;22.20;45.70;;;;;;5109715;28;19928;-74
2023/03/30 07:32:26;;;;;;;;;;;22.20;45.90;;;;;;5107292;28;19928;-72
2023/03/30 07:34:51;;;;;;;;;;;22.10;45.90;;;;;;5092397;28;20011;-73
2023/03/30 07:37:17;;;;;;;;;;;22.10;46.00;;;;;;5071859;28;19923;-74
2023/03/30 07:39:43;;;;;;;;;;;22.00;45.90;;;;;;5078758;28;19924;-69
2023/03/30 07:42:08;;;;;;;;;;;21.80;46.10;;;;;;5093260;28;19965;-71
2023/03/30 07:44:34;;;;;;;;;;;21.70;46.50;;;;;;5093551;28;20370;-77
2023/03/30 07:47:00;;;;;;;;;;;21.50;46.60;;;;;;5083616;28;19928;-73
2023/03/30 07:49:26;;;;;;;;;;;21.50;46.90;;;;;;5077598;28;20570;-71
2023/03/30 07:51:52;;;;;;;;;;;21.40;47.00;;;;;;5092228;28;19931;-69
2023/03/30 07:54:18;;;;;;;;;;;21.40;47.10;;;;;;5099216;28;20020;-79
2023/03/30 07:56:43;;;;;;;;;;;21.30;47.30;;;;;;5076259;28;19924;-74
2023/03/30 07:59:09;;;;;;;;;;;21.40;47.50;;;;;;5082797;27;19925;-74
2023/03/30 08:01:35;;;;;;;;;;;21.50;47.30;;;;;;5083726;28;19928;-72
2023/03/30 08:04:01;;;;;;;;;;;21.70;47.00;;;;;;5077576;28;19920;-71
2023/03/30 08:06:27;;;;;;;;;;;21.90;46.60;;;;;;5094849;28;19924;-78
2023/03/30 08:08:53;;;;;;;;;;;22.00;46.30;;;;;;5080126;28;19931;-72
2023/03/30 08:11:18;;;;;;;;;;;22.10;46.00;;;;;;5084337;28;20298;-75
2023/03/30 08:13:44;;;;;;;;;;;22.10;45.80;;;;;;5109221;27;19928;-71
2023/03/30 08:16:10;;;;;;;;;;;22.00;46.00;;;;;;5077868;28;20383;-73
2023/03/30 08:18:36;;;;;;;;;;;21.90;46.40;;;;;;5096997;28;19939;-75
2023/03/30 08:21:02;;;;;;;;;;;21.90;46.30;;;;;;5096865;28;19920;-72
2023/03/30 08:23:27;;;;;;;;;;;22.00;46.30;;;;;;5077665;28;19962;-74
2023/03/30 08:25:56;;;;;;;;;;;22.10;46.10;;;;;;5081450;28;19966;-75
2023/03/30 08:28:22;;;;;;;;;;;22.20;47.00;;;;;;5113847;27;19919;-77
2023/03/30 08:30:47;;;;;;;;;;;22.20;46.00;;;;;;5077392;28;19972;-70
2023/03/30 08:33:14;;;;;;;;;;;22.20;46.00;;;;;;5077460;28;20326;-77
2023/03/30 08:35:43;;;;;;;;;;;22.20;45.80;;;;;;5096773;28;19928;-77
2023/03/30 08:38:08;;;;;;;;;;;22.10;45.90;;;;;;5073318;28;20689;-76
2023/03/30 08:40:37;;;;;;;;;;;21.90;46.30;;;;;;5110299;27;19924;-75
2023/03/30 08:43:13;;;;;;;;;;;21.80;46.70;;;;;;5096078;28;19924;-76
2023/03/30 08:45:40;;;;;;;;;;;21.60;47.00;;;;;;5097011;28;20367;-75
2023/03/30 08:48:10;;;;;;;;;;;21.50;47.30;;;;;;5106869;27;20439;-76
2023/03/30 08:50:36;;;;;;;;;;;21.40;47.70;;;;;;5068906;28;19985;-72
2023/03/30 08:53:03;;;;;;;;;;;21.50;48.10;;;;;;5106075;27;19928;-68
2023/03/30 08:55:31;;;;;;;;;;;21.50;47.80;;;;;;5073169;28;19920;-70
2023/03/30 08:58:16;;;;;;;;;;;21.60;47.80;;;;;;5074033;28;19928;-72
2023/03/30 09:00:54;;;;;;;;;;;21.80;47.80;;;;;;5070798;28;19924;-71
2023/03/30 09:03:30;;;;;;;;;;;21.90;47.40;;;;;;5078438;28;19927;-68
2023/03/30 09:06:02;;;;;;;;;;;22.00;47.20;;;;;;5092642;28;20333;-75
2023/03/30 09:08:30;;;;;;;;;;;22.00;47.20;;;;;;5096532;28;19969;-72
2023/03/30 09:10:58;;;;;;;;;;;22.10;47.10;;;;;;5096521;28;20020;-71
2023/03/30 09:13:27;;;;;;;;;;;22.10;47.10;;;;;;5095496;28;19961;-74
2023/03/30 09:18:36;;;;;;;;;;;22.20;47.10;;;;;;5071760;27;20343;-73
2023/03/30 09:21:02;;;;;;;;;;;22.20;47.10;;;;;;5078264;28;20406;-68
2023/03/30 09:23:29;;;;;;;;;;;22.10;47.10;;;;;;5060969;28;19936;-72
2023/03/30 09:26:15;;;;;;;;;;;22.10;47.10;;;;;;5061953;28;20336;-69
2023/03/30 09:31:31;;;;;;;;;;;22.10;47.10;;;;;;5059903;28;19916;-73
2023/03/30 09:36:39;;;;;;;;;;;22.00;47.70;;;;;;5051411;28;20400;-74
2023/03/30 09:39:09;;;;;;;;;;;22.00;47.50;;;;;;5063253;28;19924;-77
2023/03/30 09:44:21;;;;;;;;;;;22.00;47.70;;;;;;5091188;27;19920;-76
2023/03/30 09:46:48;;;;;;;;;;;22.00;47.70;;;;;;5123225;27;19927;-77
2023/03/30 09:49:15;;;;;;;;;;;21.90;47.80;;;;;;5122273;27;19924;-71
2023/03/30 09:52:00;;;;;;;;;;;21.90;47.90;;;;;;5089663;28;19939;-72
2023/03/30 09:54:33;;;;;;;;;;;21.90;47.70;;;;;;5095455;28;19920;-71
2023/03/30 09:56:58;;;;;;;;;;;21.70;47.90;;;;;;5084447;28;19958;-75
2023/03/30 09:59:28;;;;;;;;;;;21.60;48.00;;;;;;5087500;28;20371;-73
2023/03/30 10:02:08;;;;;;;;;;;21.60;48.40;;;;;;5092987;28;19924;-73
2023/03/30 10:04:53;;;;;;;;;;;21.60;48.50;;;;;;5086343;28;19917;-73
2023/03/30 10:07:21;;;;;;;;;;;21.70;48.40;;;;;;5089494;28;19931;-79
2023/03/30 10:09:46;;;;;;;;;;;21.70;48.50;;;;;;5090952;28;19920;-76
2023/03/30 10:12:12;;;;;;;;;;;21.70;48.60;;;;;;5121324;27;20494;-78
2023/03/30 10:14:37;;;;;;;;;;;21.80;48.40;;;;;;5086879;28;19925;-79
2023/03/30 10:17:04;;;;;;;;;;;21.70;48.40;;;;;;5089502;28;20280;-74
2023/03/30 10:19:31;;;;;;;;;;;21.70;48.40;;;;;;5085459;28;19931;-73
2023/03/30 10:21:58;;;;;;;;;;;21.70;48.30;;;;;;5090158;28;20398;-73
2023/03/30 10:24:26;;;;;;;;;;;21.70;48.50;;;;;;5090840;28;19925;-77
2023/03/30 10:26:55;;;;;;;;;;;21.70;48.50;;;;;;5089193;28;20062;-77
2023/03/30 10:29:22;;;;;;;;;;;21.70;48.50;;;;;;5090058;28;19947;-70
2023/03/30 10:31:48;;;;;;;;;;;21.80;48.80;;;;;;5090258;28;20363;-74
2023/03/30 10:36:55;;;;;;;;;;;21.80;48.10;;;;;;5086994;27;19916;-68
2023/03/30 10:42:03;;;;;;;;;;;21.60;47.50;;;;;;5069610;28;20315;-73
2023/03/30 10:44:30;;;;;;;;;;;21.50;47.50;;;;;;5067753;28;19932;-70
2023/03/30 10:52:35;;;;;;;;;;;21.60;48.00;;;;;;5087142;27;20147;-71
2023/03/30 10:55:06;;;;;;;;;;;21.50;47.80;;;;;;5071924;28;19930;-71
2023/03/30 10:57:40;;;;;;;;;;;21.50;47.90;;;;;;5073148;28;20398;-72
2023/03/30 11:00:25;;;;;;;;;;;21.50;48.10;;;;;;5072542;28;19920;-72
2023/03/30 11:03:09;;;;;;;;;;;21.50;47.90;;;;;;5077798;28;19924;-71
2023/03/30 11:05:37;;;;;;;;;;;21.50;47.90;;;;;;5079433;28;19924;-70
2023/03/30 11:08:05;;;;;;;;;;;21.40;48.00;;;;;;5080734;28;19924;-71
2023/03/30 11:10:32;;;;;;;;;;;21.40;48.00;;;;;;5080086;28;20430;-73
2023/03/30 11:13:17;;;;;;;;;;;21.40;48.00;;;;;;5084131;28;19924;-72
2023/03/30 11:18:42;;;;;;;;;;;21.50;47.90;;;;;;5090187;27;20121;-72
2023/03/30 11:21:14;;;;;;;;;;;21.50;47.80;;;;;;5056943;28;19924;-71
2023/03/30 11:23:46;;;;;;;;;;;21.50;47.90;;;;;;5071059;28;19928;-69
2023/03/30 11:26:16;;;;;;;;;;;21.60;47.90;;;;;;5070582;28;20330;-75
2023/03/30 11:29:01;;;;;;;;;;;21.60;48.50;;;;;;5054529;28;20380;-71
2023/03/30 11:34:16;;;;;;;;;;;21.60;47.80;;;;;;5130294;27;19945;-71
2023/03/30 11:36:47;;;;;;;;;;;21.50;47.70;;;;;;5118236;27;20169;-71
2023/03/30 11:39:13;;;;;;;;;;;21.60;47.90;;;;;;5113161;27;20314;-68
2023/03/30 11:41:43;;;;;;;;;;;21.60;47.90;;;;;;5117602;27;20380;-72
2023/03/30 11:44:09;;;;;;;;;;;21.60;47.90;;;;;;5133736;27;19927;-69
2023/03/30 11:46:39;;;;;;;;;;;21.60;47.80;;;;;;5118845;27;20403;-78
2023/03/30 11:49:12;;;;;;;;;;;21.60;47.80;;;;;;5119633;27;20016;-75
2023/03/30 11:51:57;;;;;;;;;;;21.60;47.70;;;;;;5113837;27;20391;-74
2023/03/30 11:54:33;;;;;;;;;;;21.60;47.80;;;;;;5114667;27;19928;-74
2023/03/30 11:59:47;;;;;;;;;;;21.60;47.90;;;;;;5085072;27;19924;-72
2023/03/30 12:02:19;;;;;;;;;;;21.60;48.00;;;;;;5078067;28;19968;-76
2023/03/30 12:04:58;;;;;;;;;;;21.70;48.00;;;;;;5083123;28;19919;-70
2023/03/30 12:07:36;;;;;;;;;;;21.70;47.90;;;;;;5076792;28;19924;-71
2023/03/30 12:10:03;;;;;;;;;;;21.70;47.90;;;;;;5073187;28;19928;-80
2023/03/30 12:12:31;;;;;;;;;;;21.70;47.90;;;;;;5076075;28;20287;-74
2023/03/30 12:15:02;;;;;;;;;;;21.70;47.70;;;;;;5064667;28;19928;-74
2023/03/30 12:17:47;;;;;;;;;;;21.70;47.70;;;;;;5093902;27;19936;-76
2023/03/30 12:20:20;;;;;;;;;;;21.70;47.80;;;;;;5066110;28;20434;-72
2023/03/30 12:22:54;;;;;;;;;;;21.70;47.80;;;;;;5101392;27;19983;-76
2023/03/30 12:25:27;;;;;;;;;;;21.70;47.90;;;;;;5100225;27;19928;-70
2023/03/30 12:27:57;;;;;;;;;;;21.70;47.90;;;;;;5100687;27;19952;-73
2023/03/30 12:30:25;;;;;;;;;;;21.70;47.90;;;;;;5073100;28;19924;-72
2023/03/30 12:32:59;;;;;;;;;;;21.70;47.90;;;;;;5070208;28;20042;-72
2023/03/30 12:35:45;;;;;;;;;;;21.70;47.90;;;;;;5101944;27;19921;-70
2023/03/30 12:38:15;;;;;;;;;;;21.70;47.90;;;;;;5066624;28;19931;-75
2023/03/30 12:40:45;;;;;;;;;;;21.70;47.80;;;;;;5101739;27;20043;-71
2023/03/30 12:43:18;;;;;;;;;;;21.80;47.70;;;;;;5106723;27;19931;-72
2023/03/30 12:46:04;;;;;;;;;;;21.80;47.80;;;;;;5064164;28;19928;-70
2023/03/30 12:53:59;;;;;;;;;;;21.70;47.40;;;;;;5070085;27;19925;-78
2023/03/30 12:56:30;;;;;;;;;;;21.80;47.50;;;;;;5066655;28;20505;-73
2023/03/30 13:04:38;;;;;;;;;;;21.70;47.40;;;;;;5083665;27;19913;-66
2023/03/30 13:07:06;;;;;;;;;;;21.60;47.50;;;;;;5067806;28;19932;-65
2023/03/30 13:09:34;;;;;;;;;;;21.60;47.30;;;;;;5067614;28;19924;-66
2023/03/30 13:17:24;;;;;;;;;;;21.30;46.60;;;;;;5068753;28;19924;-70
2023/03/30 13:20:09;;;;;;;;;;;21.30;46.70;;;;;;5072258;28;20023;-68
2023/03/30 13:22:35;;;;;;;;;;;21.20;46.60;;;;;;5080936;28;19927;-68
2023/03/30 13:25:20;;;;;;;;;;;21.20;46.70;;;;;;5083701;28;19921;-68
2023/03/30 13:27:48;;;;;;;;;;;21.40;46.90;;;;;;5083506;28;19920;-67
2023/03/30 13:30:15;;;;;;;;;;;21.30;46.60;;;;;;5084233;28;20445;-68
2023/03/30 13:32:48;;;;;;;;;;;21.40;46.50;;;;;;5083950;28;20427;-68
2023/03/30 13:38:17;;;;;;;;;;;21.50;45.70;;;;;;5085651;28;19934;-68
2023/03/30 13:40:49;;;;;;;;;;;21.60;45.30;;;;;;5080569;28;19926;-68
2023/03/30 13:46:06;;;;;;;;;;;21.70;45.90;;;;;;5084706;28;19916;-68
2023/03/30 13:48:51;;;;;;;;;;;21.70;45.00;;;;;;5084295;28;19921;-68
2023/03/30 13:51:19;;;;;;;;;;;21.80;45.10;;;;;;5082242;28;19924;-68
2023/03/30 13:53:50;;;;;;;;;;;21.80;44.80;;;;;;5083416;28;20013;-68
2023/03/30 13:56:16;;;;;;;;;;;21.80;44.90;;;;;;5082687;28;19925;-67
2023/03/30 13:58:47;;;;;;;;;;;21.90;44.60;;;;;;5081299;28;19977;-67
2023/03/30 14:01:13;;;;;;;;;;;21.80;44.70;;;;;;5081118;28;20046;-67
2023/03/30 14:03:40;;;;;;;;;;;21.90;44.70;;;;;;5080273;28;19943;-66
2023/03/30 14:06:07;;;;;;;;;;;21.90;45.00;;;;;;5082779;28;19920;-67
2023/03/30 14:08:34;;;;;;;;;;;21.80;44.90;;;;;;5080860;28;19974;-68
2023/03/30 14:11:02;;;;;;;;;;;21.80;45.10;;;;;;5081783;28;19921;-69
2023/03/30 14:13:27;;;;;;;;;;;21.70;45.10;;;;;;5080406;28;19965;-67
2023/03/30 14:15:54;;;;;;;;;;;21.70;45.20;;;;;;5080727;28;19920;-73
2023/03/30 14:18:21;;;;;;;;;;;21.70;45.20;;;;;;5080715;28;19920;-69
2023/03/30 14:20:52;;;;;;;;;;;21.60;45.20;;;;;;5080459;28;20383;-69
2023/03/30 14:23:24;;;;;;;;;;;21.50;45.30;;;;;;5084227;28;19925;-70
2023/03/30 14:25:56;;;;;;;;;;;21.60;45.50;;;;;;5078841;28;20416;-71
2023/03/30 14:28:22;;;;;;;;;;;21.50;45.50;;;;;;5080424;28;19921;-67
2023/03/30 14:33:29;;;;;;;;;;;21.50;45.60;;;;;;5082036;28;20457;-69
2023/03/30 14:35:56;;;;;;;;;;;21.50;45.60;;;;;;5081970;28;20626;-68
2023/03/30 14:38:23;;;;;;;;;;;21.40;46.50;;;;;;5081133;28;19924;-68
2023/03/30 14:40:50;;;;;;;;;;;21.30;45.70;;;;;;5081107;28;19927;-73
2023/03/30 14:43:18;;;;;;;;;;;21.20;45.90;;;;;;5084668;28;19932;-72
2023/03/30 14:45:44;;;;;;;;;;;21.20;46.20;;;;;;5082022;28;20011;-70
2023/03/30 14:48:17;;;;;;;;;;;21.10;46.30;;;;;;5082210;28;20015;-70
2023/03/30 14:50:47;;;;;;;;;;;21.10;46.40;;;;;;5086247;28;19952;-74
2023/03/30 14:53:12;;;;;;;;;;;21.00;46.60;;;;;;5083988;28;20041;-70
2023/03/30 14:55:38;;;;;;;;;;;21.00;46.90;;;;;;5083538;28;20371;-70
2023/03/30 14:58:05;;;;;;;;;;;21.00;47.00;;;;;;5083375;28;20459;-70
2023/03/30 15:00:30;;;;;;;;;;;20.90;47.10;;;;;;5094351;28;20037;-72
2023/03/30 15:02:57;;;;;;;;;;;20.90;47.20;;;;;;5085033;28;20003;-71
2023/03/30 15:05:25;;;;;;;;;;;20.80;47.20;;;;;;5084877;28;19924;-71
2023/03/30 15:07:51;;;;;;;;;;;20.80;47.30;;;;;;5082929;28;19955;-71
2023/03/30 15:10:34;;;;;;;;;;;20.80;47.30;;;;;;5083334;28;20287;-71
2023/03/30 15:13:01;;;;;;;;;;;20.70;47.30;;;;;;5086808;28;19924;-73
2023/03/30 15:15:29;;;;;;;;;;;20.70;47.30;;;;;;5088219;28;19921;-69
2023/03/30 15:17:55;;;;;;;;;;;20.70;47.40;;;;;;5087562;28;19928;-70
2023/03/30 15:20:22;;;;;;;;;;;20.60;47.40;;;;;;5086788;28;19928;-70
2023/03/30 15:22:50;;;;;;;;;;;20.60;47.40;;;;;;5086900;28;19927;-70
2023/03/30 15:25:18;;;;;;;;;;;20.60;47.50;;;;;;5086030;28;19978;-70
2023/03/30 15:27:50;;;;;;;;;;;20.60;47.60;;;;;;5087073;28;19924;-70
2023/03/30 15:30:25;;;;;;;;;;;20.50;47.60;;;;;;5087002;28;19942;-70
2023/03/30 15:32:53;;;;;;;;;;;20.50;47.70;;;;;;5086934;28;20022;-70
2023/03/30 15:35:21;;;;;;;;;;;20.50;47.70;;;;;;5087682;28;19920;-70
2023/03/30 15:37:55;;;;;;;;;;;20.40;47.70;;;;;;5095042;28;19951;-71